createdAt,value
2024-03-13T00:00:03.546Z,98.71
2024-03-13T00:01:03.606Z,98.60
2024-03-13T00:02:03.566Z,98.60
2024-03-13T00:03:03.543Z,98.60
2024-03-13T00:04:03.506Z,98.75
2024-03-13T00:05:03.494Z,98.75
2024-03-13T00:06:03.462Z,98.75
2024-03-13T00:07:03.514Z,98.85
2024-03-13T00:08:03.458Z,99.27
2024-03-13T00:09:03.473Z,99.58
2024-03-13T00:10:03.456Z,99.90
2024-03-13T00:11:03.466Z,99.99
2024-03-13T00:12:03.399Z,99.99
2024-03-13T00:13:03.431Z,99.99
2024-03-13T00:14:03.366Z,99.99
2024-03-13T00:15:03.397Z,99.99
2024-03-13T00:16:03.383Z,99.99
2024-03-13T00:17:03.366Z,99.99
2024-03-13T00:18:03.366Z,99.99
2024-03-13T00:19:03.353Z,99.99
2024-03-13T00:20:03.328Z,99.99
2024-03-13T00:21:03.342Z,99.99
2024-03-13T00:22:03.376Z,99.99
2024-03-13T00:23:03.335Z,99.99
2024-03-13T00:24:03.271Z,99.99
2024-03-13T00:25:03.302Z,99.99
2024-03-13T00:26:03.250Z,99.99
2024-03-13T00:27:03.251Z,99.99
2024-03-13T00:28:03.286Z,99.99
2024-03-13T00:29:03.268Z,99.99
2024-03-13T00:30:03.205Z,99.99
2024-03-13T00:31:03.233Z,99.99
2024-03-13T00:32:03.194Z,99.99
2024-03-13T00:33:03.226Z,99.99
2024-03-13T00:34:03.178Z,99.99
2024-03-13T00:35:03.220Z,99.99
2024-03-13T00:36:03.132Z,99.99
2024-03-13T00:37:03.174Z,99.99
2024-03-13T00:38:03.114Z,99.99
2024-03-13T00:39:03.132Z,99.99
2024-03-13T00:40:03.134Z,99.99
2024-03-13T00:41:03.124Z,99.99
2024-03-13T00:42:03.086Z,99.99
2024-03-13T00:43:03.131Z,99.99
2024-03-13T00:44:03.058Z,99.99
2024-03-13T00:45:03.100Z,99.99
2024-03-13T00:46:03.099Z,99.99
2024-03-13T00:47:03.072Z,99.99
2024-03-13T00:48:03.034Z,99.99
2024-03-13T00:49:03.024Z,99.99
2024-03-13T00:50:02.994Z,99.99
2024-03-13T00:51:02.995Z,99.99
2024-03-13T00:52:02.988Z,99.99
2024-03-13T00:53:02.993Z,99.99
2024-03-13T00:54:02.997Z,99.99
2024-03-13T00:55:03.010Z,99.99
2024-03-13T00:56:02.927Z,99.99
2024-03-13T00:57:02.961Z,99.99
2024-03-13T00:58:03.022Z,99.99
2024-03-13T00:59:02.904Z,99.99
2024-03-13T01:00:02.898Z,99.99
2024-03-13T01:01:02.918Z,99.99
2024-03-13T01:02:04.648Z,99.99
2024-03-13T01:03:02.875Z,99.99
2024-03-13T01:04:02.901Z,99.99
2024-03-13T01:05:02.852Z,99.99
2024-03-13T01:06:02.838Z,99.99
2024-03-13T01:07:02.852Z,99.99
2024-03-13T01:08:02.798Z,99.99
2024-03-13T01:09:02.798Z,99.99
2024-03-13T01:10:02.816Z,99.99
2024-03-13T01:11:02.799Z,99.99
2024-03-13T01:12:02.757Z,99.99
2024-03-13T01:13:02.845Z,99.99
2024-03-13T01:14:02.757Z,99.99
2024-03-13T01:15:02.754Z,99.99
2024-03-13T01:16:02.730Z,99.99
2024-03-13T01:17:02.726Z,99.99
2024-03-13T01:18:02.759Z,99.99
2024-03-13T01:19:02.720Z,99.99
2024-03-13T01:20:02.743Z,99.99
2024-03-13T01:21:02.690Z,99.99
2024-03-13T01:22:02.664Z,99.99
2024-03-13T01:23:02.645Z,99.99
2024-03-13T01:24:02.645Z,99.99
2024-03-13T01:25:02.684Z,99.99
2024-03-13T01:26:02.626Z,99.99
2024-03-13T01:27:02.618Z,99.99
2024-03-13T01:28:02.630Z,99.99
2024-03-13T01:29:02.596Z,99.99
2024-03-13T01:30:02.566Z,99.99
2024-03-13T01:31:02.638Z,99.99
2024-03-13T01:32:02.600Z,99.99
2024-03-13T01:33:02.619Z,99.99
2024-03-13T01:34:02.642Z,99.99
2024-03-13T01:35:02.522Z,99.99
2024-03-13T01:36:02.509Z,99.99
2024-03-13T01:37:02.513Z,99.99
2024-03-13T01:38:02.484Z,99.99
2024-03-13T01:39:02.508Z,99.99
2024-03-13T01:40:02.487Z,99.99
2024-03-13T01:41:02.458Z,99.99
2024-03-13T01:42:02.456Z,99.99
2024-03-13T01:43:02.463Z,99.99
2024-03-13T01:44:02.437Z,99.99
2024-03-13T01:45:02.435Z,99.99
2024-03-13T01:46:02.460Z,99.99
2024-03-13T01:47:02.403Z,99.99
2024-03-13T01:48:02.409Z,99.99
2024-03-13T01:49:02.403Z,99.99
2024-03-13T01:50:02.369Z,99.99
2024-03-13T01:51:02.385Z,99.99
2024-03-13T01:52:02.400Z,99.99
2024-03-13T01:53:02.324Z,99.99
2024-03-13T01:54:02.340Z,99.99
2024-03-13T01:55:02.356Z,99.99
2024-03-13T01:56:02.320Z,99.99
2024-03-13T01:57:02.297Z,99.99
2024-03-13T01:58:02.365Z,99.99
2024-03-13T01:59:02.258Z,99.99
2024-03-13T02:00:02.270Z,99.99
2024-03-13T02:01:02.378Z,99.99
2024-03-13T02:02:02.337Z,99.99
2024-03-13T02:03:02.220Z,99.99
2024-03-13T02:04:02.256Z,99.99
2024-03-13T02:05:02.199Z,99.99
2024-03-13T02:06:02.310Z,99.99
2024-03-13T02:07:02.201Z,99.99
2024-03-13T02:08:02.194Z,99.99
2024-03-13T02:09:02.164Z,99.99
2024-03-13T02:10:02.280Z,99.99
2024-03-13T02:11:02.218Z,99.99
2024-03-13T02:12:02.153Z,99.99
2024-03-13T02:13:02.168Z,99.99
2024-03-13T02:14:02.123Z,99.99
2024-03-13T02:15:02.089Z,99.99
2024-03-13T02:16:02.105Z,99.99
2024-03-13T02:17:02.124Z,99.99
2024-03-13T02:18:04.996Z,99.99
2024-03-13T02:19:02.101Z,99.99
2024-03-13T02:20:02.097Z,99.99
2024-03-13T02:21:02.050Z,99.99
2024-03-13T02:22:02.062Z,99.99
2024-03-13T02:23:02.013Z,99.99
2024-03-13T02:24:02.055Z,99.99
2024-03-13T02:25:02.016Z,99.99
2024-03-13T02:26:02.001Z,99.99
2024-03-13T02:27:02.041Z,99.99
2024-03-13T02:28:02.006Z,99.99
2024-03-13T02:29:01.957Z,99.99
2024-03-13T02:30:02.004Z,99.99
2024-03-13T02:31:01.988Z,99.99
2024-03-13T02:32:01.938Z,99.99
2024-03-13T02:33:01.945Z,99.99
2024-03-13T02:34:01.965Z,99.99
2024-03-13T02:35:01.885Z,99.99
2024-03-13T02:36:01.921Z,99.99
2024-03-13T02:37:01.878Z,99.99
2024-03-13T02:38:01.870Z,99.99
2024-03-13T02:39:01.855Z,99.99
2024-03-13T02:40:02.094Z,99.99
2024-03-13T02:41:01.818Z,99.99
2024-03-13T02:42:01.862Z,99.99
2024-03-13T02:43:01.823Z,99.99
2024-03-13T02:44:01.847Z,99.99
2024-03-13T02:45:01.769Z,99.99
2024-03-13T02:46:01.814Z,99.99
2024-03-13T02:47:01.751Z,99.99
2024-03-13T02:48:01.802Z,99.99
2024-03-13T02:49:01.753Z,99.99
2024-03-13T02:50:01.764Z,99.99
2024-03-13T02:51:01.705Z,99.99
2024-03-13T02:52:01.753Z,99.99
2024-03-13T02:53:01.683Z,99.99
2024-03-13T02:54:01.724Z,99.99
2024-03-13T02:55:01.736Z,99.99
2024-03-13T02:56:01.669Z,99.99
2024-03-13T02:57:01.651Z,99.99
2024-03-13T02:58:01.714Z,99.99
2024-03-13T02:59:01.676Z,99.99
2024-03-13T03:00:01.652Z,99.99
2024-03-13T03:01:01.716Z,99.99
2024-03-13T03:02:03.955Z,99.99
2024-03-13T03:03:01.585Z,99.99
2024-03-13T03:04:01.625Z,99.99
2024-03-13T03:05:01.583Z,99.99
2024-03-13T03:06:01.571Z,99.99
2024-03-13T03:07:01.577Z,99.99
2024-03-13T03:08:01.547Z,99.99
2024-03-13T03:09:01.518Z,99.99
2024-03-13T03:10:01.574Z,99.99
2024-03-13T03:11:03.175Z,99.99
2024-03-13T03:12:01.498Z,99.99
2024-03-13T03:13:01.527Z,99.99
2024-03-13T03:14:01.482Z,99.99
2024-03-13T03:15:01.546Z,99.99
2024-03-13T03:16:01.608Z,99.99
2024-03-13T03:17:01.433Z,99.99
2024-03-13T03:18:01.444Z,99.99
2024-03-13T03:19:01.452Z,99.99
2024-03-13T03:20:01.412Z,99.99
2024-03-13T03:21:01.398Z,99.99
2024-03-13T03:22:01.462Z,99.99
2024-03-13T03:23:01.384Z,99.99
2024-03-13T03:24:01.375Z,99.99
2024-03-13T03:25:01.468Z,99.99
2024-03-13T03:26:01.360Z,99.99
2024-03-13T03:27:01.331Z,99.99
2024-03-13T03:28:01.567Z,99.99
2024-03-13T03:29:01.300Z,99.99
2024-03-13T03:30:01.306Z,99.99
2024-03-13T03:31:01.353Z,99.99
2024-03-13T03:32:01.282Z,99.99
2024-03-13T03:33:01.364Z,99.99
2024-03-13T03:34:01.370Z,99.99
2024-03-13T03:35:01.235Z,99.99
2024-03-13T03:36:01.336Z,99.99
2024-03-13T03:37:01.233Z,99.99
2024-03-13T03:38:01.296Z,99.99
2024-03-13T03:39:01.720Z,99.99
2024-03-13T03:40:01.890Z,99.99
2024-03-13T03:41:01.181Z,99.99
2024-03-13T03:42:01.190Z,99.99
2024-03-13T03:43:01.182Z,99.99
2024-03-13T03:44:01.219Z,99.99
2024-03-13T03:45:01.148Z,99.99
2024-03-13T03:46:01.218Z,99.99
2024-03-13T03:47:01.125Z,99.99
2024-03-13T03:48:07.202Z,99.99
2024-03-13T03:49:01.146Z,99.99
2024-03-13T03:50:01.131Z,99.99
2024-03-13T03:51:01.116Z,99.99
2024-03-13T03:52:01.138Z,99.99
2024-03-13T03:53:01.125Z,99.99
2024-03-13T03:54:01.055Z,99.99
2024-03-13T03:55:01.106Z,99.99
2024-03-13T03:56:01.048Z,99.99
2024-03-13T03:57:01.008Z,99.99
2024-03-13T03:58:01.040Z,99.99
2024-03-13T03:59:01.006Z,99.99
2024-03-13T04:00:00.999Z,99.99
2024-03-13T04:01:01.071Z,99.99
2024-03-13T04:02:01.134Z,99.99
2024-03-13T04:03:00.946Z,99.99
2024-03-13T04:04:00.971Z,99.99
2024-03-13T04:05:00.967Z,99.99
2024-03-13T04:06:00.924Z,99.99
2024-03-13T04:07:00.960Z,99.99
2024-03-13T04:08:00.934Z,99.99
2024-03-13T04:09:00.882Z,99.99
2024-03-13T04:10:00.914Z,99.99
2024-03-13T04:11:00.990Z,99.99
2024-03-13T04:12:00.866Z,99.99
2024-03-13T04:13:00.857Z,99.99
2024-03-13T04:14:00.839Z,99.99
2024-03-13T04:15:00.846Z,99.99
2024-03-13T04:16:00.833Z,99.99
2024-03-13T04:17:00.826Z,99.99
2024-03-13T04:18:00.897Z,99.99
2024-03-13T04:19:00.794Z,99.99
2024-03-13T04:20:00.807Z,99.99
2024-03-13T04:21:00.780Z,99.99
2024-03-13T04:22:00.784Z,99.99
2024-03-13T04:23:00.728Z,99.99
2024-03-13T04:24:00.771Z,99.99
2024-03-13T04:25:00.755Z,99.99
2024-03-13T04:26:00.749Z,99.99
2024-03-13T04:27:00.760Z,99.99
2024-03-13T04:28:00.762Z,99.99
2024-03-13T04:29:00.689Z,99.99
2024-03-13T04:30:00.670Z,99.99
2024-03-13T04:31:00.644Z,99.99
2024-03-13T04:32:00.648Z,99.99
2024-03-13T04:33:00.678Z,99.99
2024-03-13T04:34:00.690Z,99.99
2024-03-13T04:35:00.627Z,99.99
2024-03-13T04:36:00.633Z,99.99
2024-03-13T04:37:00.662Z,99.99
2024-03-13T04:38:00.613Z,99.99
2024-03-13T04:39:00.565Z,99.99
2024-03-13T04:40:01.616Z,99.99
2024-03-13T04:41:00.545Z,99.99
2024-03-13T04:42:00.605Z,99.99
2024-03-13T04:43:00.567Z,99.99
2024-03-13T04:44:00.515Z,99.99
2024-03-13T04:45:00.526Z,99.99
2024-03-13T04:46:00.522Z,99.99
2024-03-13T04:47:00.486Z,99.99
2024-03-13T04:48:00.603Z,99.99
2024-03-13T04:49:00.511Z,99.99
2024-03-13T04:50:00.470Z,99.99
2024-03-13T04:51:00.434Z,99.99
2024-03-13T04:52:00.560Z,99.99
2024-03-13T04:53:00.406Z,99.99
2024-03-13T04:54:00.422Z,99.99
2024-03-13T04:55:00.448Z,99.99
2024-03-13T04:56:00.424Z,99.99
2024-03-13T04:57:00.376Z,99.99
2024-03-13T04:58:00.431Z,99.99
2024-03-13T04:59:00.350Z,99.99
2024-03-13T05:00:00.346Z,99.99
2024-03-13T05:01:00.436Z,99.99
2024-03-13T05:02:00.434Z,99.99
2024-03-13T05:03:00.305Z,99.99
2024-03-13T05:04:00.460Z,99.99
2024-03-13T05:05:00.311Z,99.99
2024-03-13T05:06:00.279Z,99.99
2024-03-13T05:07:00.330Z,99.99
2024-03-13T05:08:02.441Z,99.99
2024-03-13T05:09:00.283Z,99.99
2024-03-13T05:10:00.310Z,99.99
2024-03-13T05:11:00.258Z,99.99
2024-03-13T05:12:00.216Z,99.99
2024-03-13T05:13:00.258Z,99.99
2024-03-13T05:14:00.278Z,99.99
2024-03-13T05:15:00.285Z,99.99
2024-03-13T05:16:00.239Z,99.99
2024-03-13T05:17:00.172Z,99.99
2024-03-13T05:18:00.252Z,99.99
2024-03-13T05:19:00.116Z,99.99
2024-03-13T05:20:00.199Z,99.99
2024-03-13T05:21:00.154Z,99.99
2024-03-13T05:22:00.134Z,99.99
2024-03-13T05:23:00.045Z,99.99
2024-03-13T05:24:00.057Z,99.99
2024-03-13T05:25:00.086Z,99.99
2024-03-13T05:26:00.063Z,99.99
2024-03-13T05:27:00.095Z,99.99
2024-03-13T05:28:00.099Z,99.99
2024-03-13T05:28:59.987Z,99.99
2024-03-13T05:29:59.979Z,99.99
2024-03-13T05:30:59.963Z,99.99
2024-03-13T05:31:59.966Z,99.99
2024-03-13T05:33:00.089Z,99.99
2024-03-13T05:33:59.955Z,99.99
2024-03-13T05:34:59.945Z,99.99
2024-03-13T05:35:59.935Z,99.99
2024-03-13T05:36:59.878Z,99.99
2024-03-13T05:37:59.944Z,99.99
2024-03-13T05:38:59.912Z,99.99
2024-03-13T05:39:59.910Z,99.99
2024-03-13T05:40:59.851Z,99.99
2024-03-13T05:41:59.848Z,99.99
2024-03-13T05:42:59.852Z,99.99
2024-03-13T05:43:59.876Z,99.99
2024-03-13T05:44:59.804Z,99.99
2024-03-13T05:45:59.844Z,99.99
2024-03-13T05:46:59.786Z,99.99
2024-03-13T05:47:59.810Z,99.99
2024-03-13T05:48:59.764Z,99.99
2024-03-13T05:49:59.803Z,99.99
2024-03-13T05:50:59.740Z,99.99
2024-03-13T05:51:59.765Z,99.99
2024-03-13T05:52:59.702Z,99.99
2024-03-13T05:53:59.722Z,99.99
2024-03-13T05:54:59.711Z,99.99
2024-03-13T05:55:59.729Z,99.99
2024-03-13T05:56:59.722Z,99.99
2024-03-13T05:57:59.742Z,99.99
2024-03-13T05:58:59.648Z,99.99
2024-03-13T05:59:59.655Z,99.99
2024-03-13T06:00:59.701Z,99.99
2024-03-13T06:01:59.812Z,99.99
2024-03-13T06:02:59.639Z,99.99
2024-03-13T06:03:59.727Z,99.99
2024-03-13T06:04:59.596Z,99.99
2024-03-13T06:05:59.595Z,99.99
2024-03-13T06:06:59.694Z,99.99
2024-03-13T06:07:59.559Z,99.99
2024-03-13T06:08:59.565Z,99.99
2024-03-13T06:09:59.568Z,99.99
2024-03-13T06:10:59.649Z,99.99
2024-03-13T06:11:59.528Z,99.99
2024-03-13T06:12:59.558Z,99.99
2024-03-13T06:13:59.501Z,99.99
2024-03-13T06:14:59.506Z,99.99
2024-03-13T06:15:59.538Z,99.99
2024-03-13T06:16:59.524Z,99.99
2024-03-13T06:17:59.470Z,99.99
2024-03-13T06:18:59.497Z,99.99
2024-03-13T06:19:59.457Z,99.99
2024-03-13T06:20:59.433Z,99.99
2024-03-13T06:21:59.492Z,99.99
2024-03-13T06:22:59.414Z,99.99
2024-03-13T06:23:59.383Z,99.99
2024-03-13T06:24:59.421Z,99.99
2024-03-13T06:25:59.404Z,99.99
2024-03-13T06:26:59.372Z,99.99
2024-03-13T06:27:59.392Z,99.99
2024-03-13T06:28:59.335Z,99.99
2024-03-13T06:29:59.346Z,99.99
2024-03-13T06:30:59.339Z,99.99
2024-03-13T06:31:59.378Z,99.99
2024-03-13T06:32:59.402Z,99.99
2024-03-13T06:33:59.301Z,99.99
2024-03-13T06:34:59.273Z,99.99
2024-03-13T06:35:59.304Z,99.99
2024-03-13T06:36:59.295Z,99.99
2024-03-13T06:37:59.266Z,99.99
2024-03-13T06:38:59.253Z,99.99
2024-03-13T06:39:59.320Z,99.99
2024-03-13T06:40:59.210Z,99.99
2024-03-13T06:41:59.186Z,99.99
2024-03-13T06:42:59.224Z,99.99
2024-03-13T06:43:59.217Z,99.99
2024-03-13T06:44:59.193Z,99.99
2024-03-13T06:45:59.236Z,99.99
2024-03-13T06:46:59.142Z,99.99
2024-03-13T06:47:59.371Z,99.99
2024-03-13T06:48:59.139Z,99.99
2024-03-13T06:49:59.109Z,99.99
2024-03-13T06:50:59.113Z,99.99
2024-03-13T06:51:59.122Z,99.99
2024-03-13T06:52:59.086Z,99.99
2024-03-13T06:53:59.053Z,99.99
2024-03-13T06:54:59.106Z,99.99
2024-03-13T06:55:59.076Z,99.99
2024-03-13T06:56:59.024Z,99.93
2024-03-13T06:57:59.340Z,99.78
2024-03-13T06:58:59.026Z,99.47
2024-03-13T07:00:00.234Z,99.16
2024-03-13T07:00:59.051Z,99.06
2024-03-13T07:01:59.080Z,98.96
2024-03-13T07:02:58.968Z,98.75
2024-03-13T07:03:58.972Z,98.50
2024-03-13T07:04:58.962Z,98.39
2024-03-13T07:05:58.935Z,98.29
2024-03-13T07:06:58.952Z,97.98
2024-03-13T07:07:58.927Z,97.88
2024-03-13T07:08:58.939Z,97.98
2024-03-13T07:09:58.894Z,97.88
2024-03-13T07:10:58.927Z,97.77
2024-03-13T07:11:59.289Z,97.63
2024-03-13T07:12:58.879Z,97.52
2024-03-13T07:13:58.849Z,97.31
2024-03-13T07:14:58.874Z,97.21
2024-03-13T07:15:58.842Z,96.80
2024-03-13T07:16:58.833Z,96.70
2024-03-13T07:17:58.849Z,96.70
2024-03-13T07:18:58.805Z,96.80
2024-03-13T07:19:58.819Z,97.01
2024-03-13T07:20:58.783Z,97.01
2024-03-13T07:21:58.779Z,97.11
2024-03-13T07:22:58.795Z,97.06
2024-03-13T07:23:58.735Z,96.08
2024-03-13T07:24:58.804Z,96.08
2024-03-13T07:25:58.732Z,96.03
2024-03-13T07:26:58.713Z,95.93
2024-03-13T07:27:58.711Z,95.93
2024-03-13T07:28:59.650Z,95.93
2024-03-13T07:29:58.665Z,95.93
2024-03-13T07:30:58.713Z,95.83
2024-03-13T07:31:58.672Z,95.93
2024-03-13T07:32:58.685Z,95.52
2024-03-13T07:33:58.635Z,95.21
2024-03-13T07:34:58.616Z,95.37
2024-03-13T07:35:58.592Z,95.58
2024-03-13T07:36:58.647Z,95.58
2024-03-13T07:37:58.567Z,94.85
2024-03-13T07:38:58.568Z,94.96
2024-03-13T07:39:58.576Z,94.85
2024-03-13T07:40:58.556Z,94.45
2024-03-13T07:41:58.566Z,94.55
2024-03-13T07:42:58.564Z,94.96
2024-03-13T07:43:58.520Z,95.17
2024-03-13T07:44:58.519Z,95.06
2024-03-13T07:45:58.515Z,94.85
2024-03-13T07:46:58.498Z,94.65
2024-03-13T07:47:58.537Z,94.51
2024-03-13T07:48:58.554Z,94.76
2024-03-13T07:49:58.445Z,94.76
2024-03-13T07:50:58.444Z,94.45
2024-03-13T07:51:58.493Z,94.24
2024-03-13T07:52:58.419Z,94.24
2024-03-13T07:53:58.437Z,94.20
2024-03-13T07:54:58.453Z,94.20
2024-03-13T07:55:59.750Z,94.30
2024-03-13T07:56:58.427Z,94.30
2024-03-13T07:57:58.360Z,94.26
2024-03-13T07:58:58.360Z,94.05
2024-03-13T07:59:58.437Z,93.43
2024-03-13T08:00:58.410Z,93.02
2024-03-13T08:01:58.354Z,93.33
2024-03-13T08:02:58.330Z,93.74
2024-03-13T08:03:58.377Z,93.74
2024-03-13T08:04:58.314Z,93.84
2024-03-13T09:05:59.757Z,89.15
2024-03-13T09:06:39.720Z,89.25
2024-03-13T09:07:39.704Z,89.15
2024-03-13T09:08:44.578Z,89.04
2024-03-13T09:09:39.718Z,89.25
2024-03-13T09:10:39.776Z,89.25
2024-03-13T09:11:40.754Z,89.66
2024-03-13T09:12:39.668Z,89.56
2024-03-13T09:13:39.638Z,89.52
2024-03-13T09:14:39.658Z,89.93
2024-03-13T09:15:39.645Z,89.07
2024-03-13T09:16:39.610Z,87.84
2024-03-13T09:17:39.777Z,87.94
2024-03-13T09:18:39.672Z,87.94
2024-03-13T09:19:39.617Z,87.02
2024-03-13T09:20:39.632Z,87.32
2024-03-13T09:21:39.570Z,87.22
2024-03-13T09:22:39.565Z,87.63
2024-03-13T09:23:39.584Z,87.43
2024-03-13T09:24:39.539Z,87.53
2024-03-13T09:25:39.671Z,87.43
2024-03-13T09:26:39.552Z,87.53
2024-03-13T09:27:39.513Z,87.53
2024-03-13T09:28:39.510Z,87.63
2024-03-13T09:29:39.539Z,87.84
2024-03-13T09:30:39.469Z,87.63
2024-03-13T09:31:39.510Z,87.53
2024-03-13T09:32:39.535Z,87.84
2024-03-13T09:33:39.598Z,88.86
2024-03-13T09:34:41.033Z,89.13
2024-03-13T09:35:39.462Z,87.49
2024-03-13T09:36:39.387Z,86.98
2024-03-13T09:37:39.445Z,86.66
2024-03-13T09:38:39.417Z,86.66
2024-03-13T09:39:39.372Z,86.87
2024-03-13T09:40:41.541Z,86.73
2024-03-13T09:41:39.412Z,86.11
2024-03-13T09:42:39.326Z,86.83
2024-03-13T09:43:39.366Z,86.93
2024-03-13T09:44:39.365Z,87.10
2024-03-13T09:45:39.318Z,86.18
2024-03-13T09:46:39.290Z,85.60
2024-03-13T09:47:39.363Z,86.01
2024-03-13T09:48:39.397Z,86.22
2024-03-13T09:49:39.305Z,85.87
2024-03-13T09:50:46.884Z,85.71
2024-03-13T09:51:39.435Z,85.66
2024-03-13T09:52:39.222Z,85.87
2024-03-13T09:53:39.276Z,85.15
2024-03-13T09:54:39.202Z,85.56
2024-03-13T09:55:39.223Z,85.56
2024-03-13T09:56:39.219Z,85.15
2024-03-13T09:57:39.180Z,85.25
2024-03-13T09:58:39.147Z,85.25
2024-03-13T09:59:39.223Z,85.22
2024-03-13T10:00:39.133Z,85.01
2024-03-13T10:01:39.254Z,84.84
2024-03-13T10:02:39.152Z,84.84
2024-03-13T10:03:39.110Z,85.15
2024-03-13T10:04:39.101Z,85.11
2024-03-13T10:05:39.122Z,85.42
2024-03-13T10:06:39.086Z,85.22
2024-03-13T10:07:39.094Z,84.19
2024-03-13T10:08:39.088Z,83.98
2024-03-13T10:09:39.054Z,84.19
2024-03-13T10:10:41.688Z,83.98
2024-03-13T10:11:39.131Z,84.60
2024-03-13T10:12:40.766Z,84.09
2024-03-13T10:13:39.003Z,83.84
2024-03-13T10:14:39.046Z,83.95
2024-03-13T10:15:39.069Z,83.60
2024-03-13T10:16:38.964Z,83.09
2024-03-13T10:17:39.006Z,83.39
2024-03-13T10:18:39.044Z,82.68
2024-03-13T10:19:38.992Z,82.64
2024-03-13T10:20:38.922Z,82.75
2024-03-13T10:21:38.921Z,81.99
2024-03-13T10:22:38.898Z,82.50
2024-03-13T10:23:38.910Z,81.27
2024-03-13T10:24:38.905Z,81.17
2024-03-13T10:25:38.921Z,81.21
2024-03-13T10:26:38.910Z,81.86
2024-03-13T10:27:38.853Z,83.29
2024-03-13T10:28:38.853Z,83.60
2024-03-13T10:29:38.879Z,82.78
2024-03-13T10:30:38.846Z,83.19
2024-03-13T10:31:38.808Z,83.33
2024-03-13T10:32:38.885Z,83.64
2024-03-13T10:33:38.890Z,83.54
2024-03-13T10:34:38.777Z,84.25
2024-03-13T10:35:38.801Z,83.70
2024-03-13T10:36:38.807Z,83.81
2024-03-13T10:37:38.744Z,83.39
2024-03-13T10:38:38.823Z,83.19
2024-03-13T10:39:38.740Z,83.60
2024-03-13T10:40:38.716Z,83.60
2024-03-13T10:41:38.770Z,83.97
2024-03-13T10:42:38.695Z,83.66
2024-03-13T10:43:38.684Z,82.95
2024-03-13T10:44:38.791Z,83.15
2024-03-13T10:45:38.653Z,82.43
2024-03-13T10:46:38.664Z,83.15
2024-03-13T10:47:38.725Z,83.15
2024-03-13T10:48:38.752Z,83.25
2024-03-13T10:49:38.632Z,82.70
2024-03-13T10:50:38.637Z,82.50
2024-03-13T10:51:38.593Z,83.01
2024-03-13T10:52:38.586Z,82.60
2024-03-13T10:53:38.616Z,82.09
2024-03-13T10:54:38.570Z,82.40
2024-03-13T10:55:38.553Z,82.91
2024-03-13T10:56:38.629Z,82.09
2024-03-13T10:57:38.543Z,82.34
2024-03-13T10:58:38.524Z,82.95
2024-03-13T10:59:38.520Z,83.05
2024-03-13T11:00:38.517Z,83.25
2024-03-13T11:01:38.479Z,82.95
2024-03-13T11:02:38.516Z,83.36
2024-03-13T11:03:38.486Z,83.76
2024-03-13T11:04:38.547Z,83.56
2024-03-13T11:05:38.507Z,84.17
2024-03-13T11:06:38.446Z,84.58
2024-03-13T11:07:38.430Z,84.38
2024-03-13T11:08:38.468Z,84.69
2024-03-13T11:09:38.429Z,85.61
2024-03-13T11:10:38.499Z,84.28
2024-03-13T11:11:38.463Z,86.43
2024-03-13T11:12:38.559Z,85.50
2024-03-13T11:13:38.360Z,85.30
2024-03-13T11:14:38.420Z,86.12
2024-03-13T11:15:38.374Z,87.00
2024-03-13T11:16:38.384Z,86.79
2024-03-13T11:17:38.456Z,86.44
2024-03-13T11:18:38.464Z,87.57
2024-03-13T11:19:38.331Z,86.55
2024-03-13T11:20:38.464Z,86.61
2024-03-13T11:21:38.287Z,84.57
2024-03-13T11:22:38.348Z,84.67
2024-03-13T11:23:38.278Z,84.33
2024-03-13T11:24:38.242Z,83.98
2024-03-13T11:25:38.216Z,82.45
2024-03-13T11:26:38.296Z,80.57
2024-03-13T11:27:38.193Z,80.88
2024-03-13T11:28:38.231Z,81.39
2024-03-13T11:29:38.212Z,79.45
2024-03-13T11:30:38.168Z,80.10
2024-03-13T11:31:38.148Z,79.66
2024-03-13T11:32:38.235Z,79.35
2024-03-13T11:33:38.216Z,80.07
2024-03-13T11:34:38.141Z,80.88
2024-03-13T11:35:38.143Z,80.00
2024-03-13T11:36:38.152Z,81.87
2024-03-13T11:37:38.086Z,82.08
2024-03-13T11:38:38.103Z,83.10
2024-03-13T11:39:38.103Z,83.00
2024-03-13T11:40:38.119Z,83.00
2024-03-13T11:41:38.054Z,83.92
2024-03-13T11:42:38.041Z,83.95
2024-03-13T11:43:38.044Z,86.91
2024-03-13T11:44:38.057Z,89.58
2024-03-13T11:45:38.031Z,88.45
2024-03-13T11:46:37.995Z,87.37
2024-03-13T11:47:38.011Z,89.20
2024-03-13T11:48:38.042Z,89.72
2024-03-13T11:49:37.951Z,90.33
2024-03-13T11:50:38.002Z,91.56
2024-03-13T11:51:37.944Z,90.27
2024-03-13T11:52:37.928Z,88.84
2024-03-13T11:53:38.045Z,89.76
2024-03-13T11:54:37.905Z,90.47
2024-03-13T11:55:37.885Z,90.06
2024-03-13T11:56:37.936Z,89.04
2024-03-13T11:57:37.877Z,88.94
2024-03-13T11:58:37.872Z,90.88
2024-03-13T11:59:37.859Z,88.57
2024-03-13T12:00:37.834Z,90.52
2024-03-13T12:01:37.831Z,91.44
2024-03-13T12:02:37.856Z,91.33
2024-03-13T12:03:37.778Z,92.52
2024-03-13T12:04:37.832Z,91.50
2024-03-13T12:05:37.833Z,92.37
2024-03-13T12:06:37.782Z,92.27
2024-03-13T12:07:37.743Z,90.29
2024-03-13T12:08:37.762Z,90.80
2024-03-13T12:09:37.739Z,88.82
2024-03-13T12:10:37.733Z,87.38
2024-03-13T12:11:37.722Z,88.10
2024-03-13T12:12:37.716Z,89.39
2024-03-13T12:13:37.695Z,88.88
2024-03-13T12:14:37.763Z,89.39
2024-03-13T12:15:37.665Z,88.00
2024-03-13T12:16:37.654Z,86.36
2024-03-13T12:17:37.811Z,85.65
2024-03-13T12:18:37.719Z,86.71
2024-03-13T12:19:37.609Z,88.04
2024-03-13T12:20:37.695Z,88.41
2024-03-13T12:21:37.591Z,87.38
2024-03-13T12:22:37.623Z,85.24
2024-03-13T12:23:37.590Z,85.08
2024-03-13T12:24:37.593Z,84.67
2024-03-13T12:25:37.538Z,85.24
2024-03-13T12:26:37.649Z,85.35
2024-03-13T12:27:37.593Z,85.24
2024-03-13T12:28:37.524Z,85.24
2024-03-13T12:29:37.562Z,84.83
2024-03-13T12:30:37.505Z,84.01
2024-03-13T12:31:37.478Z,83.20
2024-03-13T12:32:37.580Z,83.71
2024-03-13T12:33:37.787Z,84.12
2024-03-13T12:34:37.528Z,83.51
2024-03-13T12:35:37.539Z,84.33
2024-03-13T12:36:37.457Z,84.33
2024-03-13T12:37:37.426Z,85.35
2024-03-13T12:38:37.591Z,84.22
2024-03-13T12:39:37.418Z,85.24
2024-03-13T12:40:37.425Z,83.61
2024-03-13T12:41:37.390Z,83.00
2024-03-13T12:42:37.365Z,83.71
2024-03-13T12:43:37.435Z,84.22
2024-03-13T12:44:37.397Z,86.67
2024-03-13T12:45:37.484Z,86.67
2024-03-13T12:46:37.335Z,84.94
2024-03-13T12:47:37.349Z,84.69
2024-03-13T12:48:37.376Z,85.10
2024-03-13T12:49:37.290Z,85.51
2024-03-13T12:50:37.293Z,83.37
2024-03-13T12:51:37.248Z,83.16
2024-03-13T12:52:37.265Z,82.75
2024-03-13T12:53:37.289Z,84.49
2024-03-13T12:54:37.221Z,84.90
2024-03-13T12:55:37.206Z,84.45
2024-03-13T12:56:37.293Z,83.43
2024-03-13T12:57:37.161Z,83.33
2024-03-13T12:58:37.174Z,84.34
2024-03-13T12:59:37.209Z,84.14
2024-03-13T13:00:37.235Z,83.63
2024-03-13T13:01:37.266Z,82.10
2024-03-13T13:02:37.182Z,82.21
2024-03-13T13:03:37.095Z,81.53
2024-03-13T13:04:37.105Z,81.84
2024-03-13T13:05:37.192Z,81.94
2024-03-13T13:06:37.123Z,83.06
2024-03-13T13:07:37.052Z,83.98
2024-03-13T13:08:37.092Z,84.49
2024-03-13T13:09:37.073Z,84.25
2024-03-13T13:10:37.035Z,83.94
2024-03-13T13:11:37.073Z,83.94
2024-03-13T13:12:37.102Z,83.63
2024-03-13T13:13:36.987Z,81.59
2024-03-13T13:14:37.049Z,81.18
2024-03-13T13:15:37.001Z,81.63
2024-03-13T13:16:36.974Z,82.79
2024-03-13T13:17:36.994Z,83.30
2024-03-13T13:18:37.144Z,83.54
2024-03-13T13:19:36.951Z,83.85
2024-03-13T13:20:37.010Z,84.36
2024-03-13T13:21:37.015Z,84.67
2024-03-13T13:22:36.956Z,84.57
2024-03-13T13:23:36.953Z,84.16
2024-03-13T13:24:36.999Z,84.67
2024-03-13T13:25:36.865Z,84.53
2024-03-13T13:26:36.891Z,84.26
2024-03-13T13:27:36.890Z,85.55
2024-03-13T13:28:36.860Z,85.96
2024-03-13T13:29:36.975Z,86.16
2024-03-13T13:30:36.851Z,86.33
2024-03-13T13:31:36.893Z,85.41
2024-03-13T13:32:36.965Z,84.69
2024-03-13T13:33:37.000Z,84.08
2024-03-13T13:34:36.762Z,84.80
2024-03-13T13:35:37.007Z,84.55
2024-03-13T13:36:36.786Z,83.43
2024-03-13T13:37:36.738Z,83.43
2024-03-13T13:38:36.754Z,82.71
2024-03-13T13:39:36.695Z,82.71
2024-03-13T13:40:36.697Z,83.09
2024-03-13T13:41:36.748Z,82.07
2024-03-13T13:42:36.688Z,81.49
2024-03-13T13:43:36.651Z,83.02
2024-03-13T13:44:36.695Z,82.31
2024-03-13T13:45:36.647Z,83.43
2024-03-13T13:46:36.657Z,83.23
2024-03-13T13:47:36.658Z,82.61
2024-03-13T13:48:36.870Z,83.63
2024-03-13T13:49:36.591Z,83.87
2024-03-13T13:50:36.663Z,83.87
2024-03-13T13:51:36.582Z,83.63